createdAt,value
2022-09-30T00:02:29.485Z,97384.81
2022-09-30T00:04:58.437Z,97387.84
2022-09-30T00:07:37.586Z,97389.78
2022-09-30T00:10:13.795Z,97395.81
2022-09-30T00:12:51.646Z,97404.06
2022-09-30T00:15:30.923Z,97409.63
2022-09-30T00:18:02.227Z,97391.91
2022-09-30T00:20:35.848Z,97367.13
2022-09-30T00:23:09.685Z,97357.34
2022-09-30T00:25:40.160Z,97360.56
2022-09-30T00:28:10.857Z,97358.59
2022-09-30T00:30:44.662Z,97355.81
2022-09-30T00:33:15.066Z,97355.03
2022-09-30T00:35:49.311Z,97355.81
2022-09-30T00:38:22.988Z,97344.31
2022-09-30T00:41:06.456Z,97349.13
2022-09-30T00:44:00.426Z,97350.28
2022-09-30T00:46:49.551Z,97350.53
2022-09-30T00:49:31.337Z,97347.09
2022-09-30T00:52:05.164Z,97351.22
2022-09-30T00:54:41.501Z,97348.56
2022-09-30T00:57:15.416Z,97346.81
2022-09-30T00:59:56.471Z,97336.31
2022-09-30T01:02:24.314Z,97339.91
2022-09-30T01:04:54.384Z,97342.44
2022-09-30T01:10:20.440Z,97358.38
2022-09-30T01:12:49.964Z,97357.00
2022-09-30T01:15:20.564Z,97369.34
2022-09-30T01:18:16.903Z,97381.56
2022-09-30T01:21:23.734Z,97381.19
2022-09-30T01:24:41.418Z,97336.81
2022-09-30T01:28:10.145Z,97379.38
2022-09-30T01:31:20.744Z,97383.28
2022-09-30T01:34:18.229Z,97378.56
2022-09-30T01:37:39.551Z,97374.88
2022-09-30T01:40:28.855Z,97334.44
2022-09-30T01:43:15.326Z,97351.88
2022-09-30T01:46:37.670Z,97367.44
2022-09-30T01:49:26.498Z,97361.94
2022-09-30T01:52:18.742Z,97366.66
2022-09-30T01:55:25.577Z,97360.09
2022-09-30T01:58:21.577Z,97371.75
2022-09-30T02:01:06.280Z,97376.38
2022-09-30T02:03:42.777Z,97378.91
2022-09-30T02:06:23.759Z,97378.44
2022-09-30T02:12:21.975Z,97378.78
2022-09-30T02:15:18.972Z,97389.19
2022-09-30T02:18:40.321Z,97388.84
2022-09-30T02:21:14.903Z,97376.78
2022-09-30T02:23:55.338Z,97415.97
2022-09-30T02:26:37.512Z,97415.03
2022-09-30T02:29:13.383Z,97432.81
2022-09-30T02:31:45.305Z,97434.31
2022-09-30T02:34:45.547Z,97432.00
2022-09-30T02:37:24.775Z,97442.63
2022-09-30T02:40:36.082Z,97436.75
2022-09-30T02:43:09.207Z,97444.00
2022-09-30T02:46:07.687Z,97441.91
2022-09-30T02:49:02.175Z,97442.59
2022-09-30T02:52:00.338Z,97410.00
2022-09-30T02:54:38.137Z,97435.22
2022-09-30T02:57:50.381Z,97437.88
2022-09-30T03:00:28.588Z,97438.25
2022-09-30T03:03:42.439Z,97432.81
2022-09-30T03:06:30.519Z,97422.31
2022-09-30T03:09:01.341Z,97438.47
2022-09-30T03:11:32.873Z,97437.66
2022-09-30T03:14:32.852Z,97450.22
2022-09-30T03:17:39.326Z,97446.22
2022-09-30T03:20:41.342Z,97436.38
2022-09-30T03:23:32.473Z,97449.63
2022-09-30T03:26:40.475Z,97442.59
2022-09-30T03:29:19.324Z,97428.69
2022-09-30T03:32:12.695Z,97441.31
2022-09-30T03:35:14.125Z,97457.84
2022-09-30T03:37:52.259Z,97466.22
2022-09-30T03:41:11.775Z,97478.56
2022-09-30T03:43:51.926Z,97494.22
2022-09-30T03:46:42.351Z,97499.81
2022-09-30T03:49:23.332Z,97507.94
2022-09-30T03:52:00.527Z,97496.03
2022-09-30T03:54:42.134Z,97494.81
2022-09-30T03:57:20.736Z,97476.50
2022-09-30T03:59:52.163Z,97495.16
2022-09-30T04:02:29.387Z,97502.66
2022-09-30T04:05:02.636Z,97500.91
2022-09-30T04:07:34.312Z,97505.28
2022-09-30T04:10:16.328Z,97515.47
2022-09-30T04:12:50.511Z,97522.59
2022-09-30T04:15:22.179Z,97526.09
2022-09-30T04:17:57.387Z,97518.56
2022-09-30T04:20:29.384Z,97538.91
2022-09-30T04:23:04.519Z,97550.75
2022-09-30T04:28:18.083Z,97549.34
2022-09-30T04:30:49.385Z,97560.13
2022-09-30T04:33:22.987Z,97562.19
2022-09-30T04:35:59.475Z,97563.81
2022-09-30T04:38:39.739Z,97552.28
2022-09-30T04:41:16.089Z,97557.97
2022-09-30T04:43:47.021Z,97533.84
2022-09-30T04:46:26.879Z,97547.91
2022-09-30T04:48:55.169Z,97550.81
2022-09-30T04:51:34.939Z,97538.75
2022-09-30T04:54:09.797Z,97538.56
2022-09-30T04:56:39.310Z,97543.31
2022-09-30T04:59:15.051Z,97545.94
2022-09-30T05:01:52.337Z,97542.50
2022-09-30T05:07:11.528Z,97552.16
2022-09-30T05:09:39.771Z,97563.34
2022-09-30T05:12:15.704Z,97571.47
2022-09-30T05:14:59.298Z,97575.81
2022-09-30T05:17:32.938Z,97586.22
2022-09-30T05:20:21.338Z,97605.16
2022-09-30T05:23:02.922Z,97616.97
2022-09-30T05:25:46.509Z,97606.72
2022-09-30T05:28:26.238Z,97589.47
2022-09-30T05:31:12.405Z,97593.50
2022-09-30T05:33:42.776Z,97594.31
2022-09-30T05:36:22.603Z,97618.91
2022-09-30T05:38:59.485Z,97615.78
2022-09-30T05:41:35.227Z,97617.31
2022-09-30T05:44:04.595Z,97622.22
2022-09-30T05:46:38.170Z,97639.66
2022-09-30T05:49:10.090Z,97640.81
2022-09-30T05:51:42.711Z,97645.94
2022-09-30T05:54:19.111Z,97644.38
2022-09-30T05:56:50.552Z,97660.25
2022-09-30T05:59:19.021Z,97643.91
2022-09-30T06:01:49.669Z,97659.44
2022-09-30T06:04:21.624Z,97644.06
2022-09-30T06:06:55.884Z,97668.69
2022-09-30T06:09:27.611Z,97665.88
2022-09-30T06:11:58.468Z,97668.91
2022-09-30T06:14:32.447Z,97674.56
2022-09-30T06:17:03.244Z,97680.28
2022-09-30T06:19:43.590Z,97686.16
2022-09-30T06:22:22.284Z,97692.84
2022-09-30T06:25:05.282Z,97696.03
2022-09-30T06:27:42.307Z,97708.28
2022-09-30T06:30:14.907Z,97722.41
2022-09-30T06:32:50.590Z,97732.34
2022-09-30T06:35:30.536Z,97718.44
2022-09-30T06:38:01.124Z,97730.53
2022-09-30T06:40:31.117Z,97722.53
2022-09-30T06:43:07.809Z,97725.34
2022-09-30T06:45:41.859Z,97726.09
2022-09-30T06:48:26.330Z,97736.72
2022-09-30T06:51:07.577Z,97747.31
2022-09-30T06:53:40.451Z,97748.06
2022-09-30T06:56:12.045Z,97746.09
2022-09-30T06:58:48.923Z,97749.03
2022-09-30T07:01:24.794Z,97742.28
2022-09-30T07:04:01.227Z,97753.56
2022-09-30T07:06:31.305Z,97753.41
2022-09-30T07:09:08.643Z,97760.09
2022-09-30T07:11:45.500Z,97745.63
2022-09-30T07:14:14.510Z,97759.34
2022-09-30T07:16:51.121Z,97768.84
2022-09-30T07:19:25.133Z,97777.41
2022-09-30T07:22:03.620Z,97766.88
2022-09-30T07:24:37.791Z,97772.53
2022-09-30T07:27:08.106Z,97768.81
2022-09-30T07:29:56.884Z,97773.03
2022-09-30T07:32:39.897Z,97774.56
2022-09-30T07:35:16.956Z,97784.88
2022-09-30T07:37:49.922Z,97792.97
2022-09-30T07:40:19.554Z,97795.97
2022-09-30T07:42:51.260Z,97776.50
2022-09-30T07:45:29.953Z,97808.19
2022-09-30T07:48:05.442Z,97820.84
2022-09-30T07:53:41.193Z,97821.91
2022-09-30T07:56:15.962Z,97830.13
2022-09-30T07:58:53.863Z,97831.09
2022-09-30T08:01:43.821Z,97839.34
2022-09-30T08:07:13.121Z,97845.47
2022-09-30T08:09:53.290Z,97841.16
2022-09-30T08:12:36.545Z,97847.41
2022-09-30T08:15:10.840Z,97846.41
2022-09-30T08:17:47.166Z,97838.88
2022-09-30T08:20:22.615Z,97843.28
2022-09-30T08:22:59.002Z,97844.44
2022-09-30T08:25:31.585Z,97852.75
2022-09-30T08:28:04.632Z,97844.34
2022-09-30T08:30:44.624Z,97850.97
2022-09-30T08:33:15.707Z,97831.28
2022-09-30T08:38:42.175Z,97856.22
2022-09-30T08:41:41.957Z,97862.34
2022-09-30T08:44:47.899Z,97859.09
2022-09-30T08:47:39.479Z,97859.66
2022-09-30T08:50:31.405Z,97848.50
2022-09-30T08:53:09.336Z,97858.91
2022-09-30T08:55:45.598Z,97871.50
2022-09-30T08:58:23.230Z,97871.03
2022-09-30T09:01:02.786Z,97877.06
2022-09-30T09:03:42.097Z,97866.66
2022-09-30T09:06:38.376Z,97889.72
2022-09-30T09:09:49.552Z,97892.38
2022-09-30T09:13:07.133Z,97881.50
2022-09-30T09:15:53.454Z,97877.53
2022-09-30T09:18:38.524Z,97873.75
2022-09-30T09:21:30.409Z,97882.72
2022-09-30T09:24:25.558Z,97895.31
2022-09-30T09:27:11.277Z,97887.03
2022-09-30T09:30:10.181Z,97898.16
2022-09-30T09:32:42.577Z,97911.34
2022-09-30T09:35:59.753Z,97907.88
2022-09-30T09:42:17.973Z,97913.44
2022-09-30T09:45:21.513Z,97913.53
2022-09-30T09:48:03.395Z,97911.50
2022-09-30T09:51:02.357Z,97919.06
2022-09-30T09:53:45.174Z,97916.13
2022-09-30T09:56:32.532Z,97903.13
2022-09-30T09:59:20.893Z,97900.88
2022-09-30T10:01:54.794Z,97898.53
2022-09-30T10:04:30.411Z,97885.22
2022-09-30T10:07:13.238Z,97883.16
2022-09-30T10:09:48.647Z,97892.13
2022-09-30T10:12:36.846Z,97901.03
2022-09-30T10:15:27.806Z,97915.34
2022-09-30T10:18:01.129Z,97908.63
2022-09-30T10:20:35.233Z,97894.16
2022-09-30T10:23:28.609Z,97911.44
2022-09-30T10:26:35.953Z,97911.09
2022-09-30T10:29:07.699Z,97906.16
2022-09-30T10:34:46.203Z,97903.44
2022-09-30T10:37:29.162Z,97908.88
2022-09-30T10:43:00.899Z,97916.44
2022-09-30T10:45:37.429Z,97912.97
2022-09-30T10:48:30.582Z,97918.34
2022-09-30T10:51:10.235Z,97919.78
2022-09-30T10:53:51.476Z,97920.66
2022-09-30T10:57:03.169Z,97925.41
2022-09-30T10:59:45.870Z,97927.63
2022-09-30T11:02:43.721Z,97914.44
2022-09-30T11:05:28.792Z,97928.88
2022-09-30T11:08:29.847Z,97931.16
2022-09-30T11:11:17.638Z,97927.97
2022-09-30T11:14:05.068Z,97922.66
2022-09-30T11:20:43.903Z,97904.69
2022-09-30T11:23:39.923Z,97919.72
2022-09-30T11:26:31.799Z,97919.91
2022-09-30T11:30:01.257Z,97917.53
2022-09-30T11:33:03.676Z,97916.78
2022-09-30T11:35:58.790Z,97916.44
2022-09-30T11:39:06.751Z,97922.25
2022-09-30T11:42:02.570Z,97943.00
2022-09-30T11:44:52.075Z,97936.41
2022-09-30T11:47:59.811Z,97928.47
2022-09-30T11:51:16.680Z,97927.00
2022-09-30T11:54:09.224Z,97922.38
2022-09-30T11:57:20.718Z,97927.84
2022-09-30T12:00:11.317Z,97936.84
2022-09-30T12:02:44.099Z,97939.03
2022-09-30T12:05:26.847Z,97939.09
2022-09-30T12:08:39.627Z,97939.97
2022-09-30T12:11:21.098Z,97933.72
2022-09-30T12:14:01.630Z,97942.94
2022-09-30T12:16:36.757Z,97939.09
2022-09-30T12:19:44.472Z,97950.66
2022-09-30T12:22:19.940Z,97941.31
2022-09-30T12:24:56.959Z,97955.09
2022-09-30T12:27:48.197Z,97949.78
2022-09-30T12:30:20.620Z,97948.19
2022-09-30T12:33:24.699Z,97948.91
2022-09-30T12:36:14.531Z,97954.34
2022-09-30T12:38:59.411Z,97956.34
2022-09-30T12:42:10.444Z,97963.50
2022-09-30T12:44:52.313Z,97966.72
2022-09-30T12:48:17.589Z,97970.09
2022-09-30T12:51:03.382Z,97967.88
2022-09-30T12:53:44.565Z,97973.19
2022-09-30T12:56:38.466Z,97977.88
2022-09-30T12:59:22.476Z,97969.09
2022-09-30T13:02:02.588Z,97964.50
2022-09-30T13:04:48.041Z,97972.81
2022-09-30T13:07:30.890Z,97981.56
2022-09-30T13:10:03.063Z,97981.81
2022-09-30T13:12:50.594Z,97991.31
2022-09-30T13:15:39.706Z,97994.41
2022-09-30T13:18:32.182Z,97985.03
2022-09-30T13:21:14.896Z,97980.63
2022-09-30T13:24:03.291Z,97986.03
2022-09-30T13:26:43.850Z,97974.97
2022-09-30T13:29:36.451Z,97995.59
2022-09-30T13:32:12.870Z,97997.31
2022-09-30T13:35:00.290Z,97999.31
2022-09-30T13:37:46.905Z,98008.50
2022-09-30T13:40:50.088Z,98020.41
2022-09-30T13:43:47.916Z,98009.50
2022-09-30T13:46:45.134Z,98019.47
2022-09-30T13:49:42.998Z,98029.31
2022-09-30T13:52:34.216Z,98029.03
2022-09-30T13:55:20.964Z,98031.81
2022-09-30T13:58:38.744Z,98038.66
2022-09-30T14:01:48.918Z,98040.28
2022-09-30T14:05:01.348Z,98049.66
2022-09-30T14:07:58.527Z,98045.19
2022-09-30T14:10:57.642Z,98057.91
2022-09-30T14:14:03.179Z,98062.31
2022-09-30T14:17:07.565Z,98060.63
2022-09-30T14:20:31.374Z,98064.34
2022-09-30T14:23:08.141Z,98067.19
2022-09-30T14:25:46.474Z,98065.22
2022-09-30T14:31:24.477Z,98071.75
2022-09-30T14:34:03.832Z,98072.47
2022-09-30T14:36:34.081Z,98077.13
2022-09-30T14:39:14.239Z,98074.69
2022-09-30T14:42:02.743Z,98032.78
2022-09-30T14:44:41.350Z,98093.72
2022-09-30T14:47:17.472Z,98098.38
2022-09-30T14:49:55.216Z,98082.81
2022-09-30T14:53:00.154Z,98019.22
2022-09-30T14:55:41.285Z,98099.81
2022-09-30T14:58:47.180Z,98095.38
2022-09-30T15:01:25.455Z,98093.31
2022-09-30T15:04:26.309Z,98088.19
2022-09-30T15:07:07.220Z,98084.50
2022-09-30T15:09:55.820Z,98087.53
2022-09-30T15:12:27.426Z,98087.41
2022-09-30T15:15:00.606Z,98094.16
2022-09-30T15:17:40.764Z,98076.16
2022-09-30T15:20:45.907Z,98092.41
2022-09-30T15:23:23.444Z,98093.22
2022-09-30T15:25:52.485Z,98092.31
2022-09-30T15:28:24.287Z,98097.06
2022-09-30T15:31:14.977Z,98098.31
2022-09-30T15:33:50.596Z,98096.84
2022-09-30T15:36:28.925Z,98095.91
2022-09-30T15:39:00.650Z,98097.16
2022-09-30T15:41:29.755Z,98094.28
2022-09-30T15:44:05.526Z,98100.56
2022-09-30T15:46:44.179Z,98093.47
2022-09-30T15:50:04.422Z,98094.16
2022-09-30T15:52:51.682Z,98108.22
2022-09-30T15:59:06.703Z,98104.41
2022-09-30T16:02:02.178Z,98112.41
2022-09-30T16:04:47.678Z,98102.44
2022-09-30T16:07:31.518Z,98115.09
2022-09-30T16:10:13.792Z,98120.97
2022-09-30T16:12:50.576Z,98120.16
2022-09-30T16:15:24.962Z,98125.44
2022-09-30T16:18:00.850Z,98131.56
2022-09-30T16:20:32.930Z,98136.78
2022-09-30T16:23:07.734Z,98136.78
2022-09-30T16:25:43.797Z,98134.59
2022-09-30T16:28:18.444Z,98134.84
2022-09-30T16:30:51.761Z,98141.31
2022-09-30T16:33:31.071Z,98141.78
2022-09-30T16:36:02.743Z,98159.78
2022-09-30T16:38:36.454Z,98164.91
2022-09-30T16:41:16.716Z,98139.22
2022-09-30T16:43:55.159Z,98164.88
2022-09-30T16:49:21.466Z,98165.84
2022-09-30T16:52:01.969Z,98167.47
2022-09-30T16:54:45.029Z,98167.66
2022-09-30T16:57:25.043Z,98165.56
2022-09-30T17:00:20.522Z,98158.25
2022-09-30T17:02:51.907Z,98153.50
2022-09-30T17:05:27.864Z,98149.56
2022-09-30T17:10:49.192Z,98167.31
2022-09-30T17:16:13.373Z,98166.25
2022-09-30T17:18:42.643Z,98157.88
2022-09-30T17:21:13.968Z,98164.97
2022-09-30T17:26:28.964Z,98164.50
2022-09-30T17:29:21.043Z,98159.97
2022-09-30T17:32:04.756Z,98167.19
2022-09-30T17:34:46.283Z,98174.84
2022-09-30T17:37:15.206Z,98171.13
2022-09-30T17:39:45.862Z,98170.31
2022-09-30T17:42:36.007Z,98176.34
2022-09-30T17:45:25.263Z,98171.47
2022-09-30T17:48:11.179Z,98176.31
2022-09-30T17:50:43.192Z,98172.34
2022-09-30T17:53:21.232Z,98170.50
2022-09-30T17:56:19.870Z,98164.63
2022-09-30T17:58:55.877Z,98149.84
2022-09-30T18:01:36.112Z,98185.00
2022-09-30T18:04:07.202Z,98199.16
2022-09-30T18:06:40.550Z,98208.75
2022-09-30T18:09:21.741Z,98200.91
2022-09-30T18:12:01.829Z,98191.03
2022-09-30T18:14:38.701Z,98197.31
2022-09-30T18:17:19.285Z,98187.59
2022-09-30T18:22:38.511Z,98190.22
2022-09-30T18:25:28.507Z,98190.56
2022-09-30T18:28:03.893Z,98177.81
2022-09-30T18:30:33.560Z,98168.66
2022-09-30T18:33:06.693Z,98180.69
2022-09-30T18:36:00.068Z,98185.69
2022-09-30T18:38:30.458Z,98183.25
2022-09-30T18:41:29.431Z,98188.00
2022-09-30T18:44:07.369Z,98201.47
2022-09-30T18:46:37.962Z,98207.03
2022-09-30T18:49:08.674Z,98208.78
2022-09-30T18:51:44.613Z,98197.88
2022-09-30T18:54:18.662Z,98199.50
2022-09-30T18:56:47.864Z,98209.34
2022-09-30T18:59:31.627Z,98201.69
2022-09-30T19:02:10.988Z,98197.28
2022-09-30T19:04:40.489Z,98200.41
2022-09-30T19:07:25.526Z,98197.28
2022-09-30T19:09:59.454Z,98215.97
2022-09-30T19:12:31.441Z,98197.13
2022-09-30T19:15:02.385Z,98189.59
2022-09-30T19:17:34.392Z,98197.63
2022-09-30T19:20:09.340Z,98200.88
2022-09-30T19:22:45.114Z,98168.91
2022-09-30T19:28:16.662Z,98183.78
2022-09-30T19:30:48.878Z,98199.41
2022-09-30T19:33:38.433Z,98191.75
2022-09-30T19:36:25.669Z,98190.16
2022-09-30T19:39:08.230Z,98190.72
2022-09-30T19:41:44.821Z,98192.25
2022-09-30T19:44:31.372Z,98204.66
2022-09-30T19:47:05.965Z,98209.06
2022-09-30T19:49:46.260Z,98216.97
2022-09-30T19:52:21.858Z,98224.84
2022-09-30T19:55:11.156Z,98226.69
2022-09-30T19:57:51.380Z,98235.59
2022-09-30T20:00:31.059Z,98249.03
2022-09-30T20:03:04.822Z,98244.41
2022-09-30T20:05:50.299Z,98242.91
2022-09-30T20:08:24.352Z,98245.00
2022-09-30T20:11:00.035Z,98251.06
2022-09-30T20:13:30.512Z,98249.09
2022-09-30T20:16:07.739Z,98245.13
2022-09-30T20:18:48.433Z,98245.13
2022-09-30T20:21:33.619Z,98258.13
2022-09-30T20:24:07.894Z,98263.00
2022-09-30T20:26:45.910Z,98253.50
2022-09-30T20:29:23.188Z,98233.00
2022-09-30T20:32:05.966Z,98259.28
2022-09-30T20:34:40.768Z,98250.78
2022-09-30T20:37:15.705Z,98248.69
2022-09-30T20:39:54.825Z,98236.59
2022-09-30T20:45:27.410Z,98215.41
2022-09-30T20:48:00.680Z,98202.19
2022-09-30T20:50:47.955Z,98192.22
2022-09-30T20:53:24.930Z,98208.00
2022-09-30T20:56:10.916Z,98228.50
2022-09-30T20:59:11.010Z,98249.63
2022-09-30T21:01:47.340Z,98252.06
2022-09-30T21:04:17.786Z,98250.22
2022-09-30T21:06:49.608Z,98260.53
2022-09-30T21:09:25.704Z,98252.75
2022-09-30T21:12:14.412Z,98259.47
2022-09-30T21:14:54.292Z,98268.50
2022-09-30T21:17:26.997Z,98269.91
2022-09-30T21:20:10.181Z,98262.84
2022-09-30T21:22:50.257Z,98259.13
2022-09-30T21:25:28.880Z,98270.84
2022-09-30T21:27:58.990Z,98270.03
2022-09-30T21:30:30.490Z,98268.41
2022-09-30T21:33:01.427Z,98261.56
2022-09-30T21:35:34.974Z,98256.38
2022-09-30T21:38:11.744Z,98279.19
2022-09-30T21:40:47.111Z,98281.03
2022-09-30T21:43:20.024Z,98286.31
2022-09-30T21:45:50.279Z,98277.31
2022-09-30T21:48:24.469Z,98271.53
2022-09-30T21:50:58.265Z,98265.03
2022-09-30T21:53:37.517Z,98270.72
2022-09-30T21:56:06.467Z,98273.38
2022-09-30T21:58:43.217Z,98265.03
2022-09-30T22:01:13.416Z,98265.84
2022-09-30T22:03:52.147Z,98269.31
2022-09-30T22:06:29.653Z,98257.66
2022-09-30T22:09:05.092Z,98259.47
2022-09-30T22:11:33.895Z,98255.91
2022-09-30T22:14:08.913Z,98261.94
2022-09-30T22:16:40.830Z,98256.34
2022-09-30T22:19:12.789Z,98242.09
2022-09-30T22:21:44.177Z,98241.75
2022-09-30T22:24:14.107Z,98242.22
2022-09-30T22:26:44.541Z,98250.91
2022-09-30T22:29:19.604Z,98242.09
2022-09-30T22:34:56.169Z,98234.22
2022-09-30T22:37:44.006Z,98230.47
2022-09-30T22:40:17.861Z,98255.41
2022-09-30T22:42:59.854Z,98271.41
2022-09-30T22:45:39.499Z,98255.41
2022-09-30T22:48:13.172Z,98241.97
2022-09-30T22:50:44.845Z,98233.25
2022-09-30T22:53:15.874Z,98246.50
2022-09-30T22:55:45.666Z,98244.31
2022-09-30T22:58:13.537Z,98226.53
2022-09-30T23:00:58.686Z,98241.75
2022-09-30T23:03:29.612Z,98248.47
2022-09-30T23:06:03.562Z,98226.00
2022-09-30T23:08:56.723Z,98214.19
2022-09-30T23:11:26.134Z,98231.56
2022-09-30T23:14:09.965Z,98234.88
2022-09-30T23:16:44.187Z,98218.94
2022-09-30T23:22:10.090Z,98240.47
2022-09-30T23:24:41.265Z,98243.91
2022-09-30T23:27:11.901Z,98249.16
2022-09-30T23:29:43.777Z,98223.94
2022-09-30T23:32:14.895Z,98239.34
2022-09-30T23:34:46.039Z,98242.00
2022-09-30T23:37:17.299Z,98232.25
2022-09-30T23:39:45.298Z,98246.13
2022-09-30T23:42:29.002Z,98244.56
2022-09-30T23:45:11.974Z,98245.88
2022-09-30T23:47:54.118Z,98258.13
2022-09-30T23:50:30.392Z,98245.00
2022-09-30T23:53:04.870Z,98251.03
2022-09-30T23:55:33.038Z,98251.84
2022-09-30T23:58:10.038Z,98238.47
